BIAE weather

Arngerðareyri Airport
Arngerðareyri, Westfjords, Iceland

Public forecast

Using degrees Celsius for public forecast. Weather courtesy of forecast.io.

METAR (pilot weather report)

Report is more than 6 hours old.

Closest report is Ísafjörður Airport, 21.0 nm (38.9 km) WNW. Retrieved 2019/04/23 18:00 UTC (11 hours ago):

BIIS 231800Z 02021G38KT 9999 -RA FEW016 BKN025 OVC030 05/M00 Q0994 RMK ARNARNES 80DGR 24G28KT MAG

TAF (pilot weather forecast)

Closest forecast is Akureyri Airport, 106.7 nm (197.5 km) E. Retrieved 2019/04/24 03:15 UTC (2 hours ago):

TAF TAF BIAR 240114Z 2403/2503 15012KT 9999 FEW050 TX15/2415Z TN05/2406Z